Airport Name : Uberaba

Other Name : Uberaba

ICAO : SBUR

IATA : UBA

FAA :

Latitude : -19.765

Longitude : -47.964778

Country : Brazil

Local Date and Time : 6/18/2018 3:46:00 PM

 

TAF (Terminal Aerodrome Forecast)

TAF SBUR 181500Z 1818/1906 10005KT 9999 SCT040TX27/1818Z TN18/1905Z BECMG 1820/1822 07006KT CAVOK RMK PGH

 

METAR (METeorological Aerodrome Report)

SBUR 181700Z 19003KT 9999 BKN042 26/10 Q1024

SBUR 181600Z 10003KT 9999 BKN040 26/11 Q1025

SBUR 181500Z VRB04KT 9999 SCT040 26/12 Q1026